Time;durP1;ratioP1;P1;durP2;ratioP2;P2;SDS_P1;SDS_P2;PMS_P1;PMS_P2;Temp;Humidity;BMP_temperature;BMP_pressure;BME280_temperature;BME280_humidity;BME280_pressure;Samples;Min_cycle;Max_cycle;Signal;HPM_P1;HPM_P2
2021/01/21 00:02:19;;;;;;;1.40;1.30;;;20.30;21.80;;;;;;5054527;28;20183;-55
2021/01/21 00:04:45;;;;;;;1.30;1.17;;;20.30;21.80;;;;;;5054480;28;20488;-55
2021/01/21 00:07:10;;;;;;;1.10;1.00;;;20.30;21.80;;;;;;5054127;28;20166;-55
2021/01/21 00:09:36;;;;;;;1.10;1.00;;;20.30;21.80;;;;;;5054436;28;20211;-55
2021/01/21 00:12:02;;;;;;;1.03;0.93;;;20.30;21.80;;;;;;5054640;28;20686;-54
2021/01/21 00:14:28;;;;;;;1.20;1.10;;;20.30;21.80;;;;;;5054442;28;20603;-55
2021/01/21 00:16:53;;;;;;;0.90;0.90;;;20.30;21.80;;;;;;5054296;28;20459;-54
2021/01/21 00:19:19;;;;;;;1.27;1.17;;;20.30;21.80;;;;;;5054315;28;20182;-54
2021/01/21 00:21:44;;;;;;;1.20;1.10;;;20.30;21.80;;;;;;5054187;28;20219;-55
2021/01/21 00:24:10;;;;;;;0.80;0.80;;;20.30;21.80;;;;;;5053468;28;20151;-54
2021/01/21 00:26:36;;;;;;;1.60;1.30;;;20.30;21.80;;;;;;5054192;28;20644;-54
2021/01/21 00:29:01;;;;;;;1.10;1.00;;;20.30;21.80;;;;;;5053953;28;20167;-55
2021/01/21 00:31:27;;;;;;;0.97;0.90;;;20.30;21.80;;;;;;5053981;28;20221;-53
2021/01/21 00:33:53;;;;;;;1.30;1.10;;;20.30;21.80;;;;;;5053928;28;20242;-54
2021/01/21 00:36:18;;;;;;;1.40;1.30;;;20.30;21.80;;;;;;5053928;28;20190;-54
2021/01/21 00:38:47;;;;;;;1.13;1.00;;;20.30;21.80;;;;;;5053331;28;20606;-55
2021/01/21 00:41:12;;;;;;;1.20;1.10;;;20.30;21.80;;;;;;5053798;28;20248;-54
2021/01/21 00:43:38;;;;;;;1.30;1.03;;;20.30;21.90;;;;;;5053802;28;20536;-55
2021/01/21 00:46:03;;;;;;;1.10;1.00;;;20.30;21.90;;;;;;5053916;28;20614;-54
2021/01/21 00:48:29;;;;;;;1.47;1.20;;;20.30;21.80;;;;;;5053805;28;20151;-54
2021/01/21 00:50:55;;;;;;;1.40;1.30;;;20.30;22.40;;;;;;5053613;28;20246;-55
2021/01/21 00:53:20;;;;;;;1.13;1.03;;;20.30;21.80;;;;;;5053016;28;20186;-54
2021/01/21 00:55:46;;;;;;;1.10;0.97;;;20.30;21.80;;;;;;5053651;28;20159;-53
2021/01/21 00:58:12;;;;;;;1.50;1.20;;;20.30;21.80;;;;;;5053635;28;20213;-55
2021/01/21 01:00:38;;;;;;;1.20;1.10;;;20.30;21.90;;;;;;5056696;28;20240;-54
2021/01/21 01:03:09;;;;;;;1.40;1.30;;;20.30;21.80;;;;;;5073609;28;20536;-54
2021/01/21 01:05:35;;;;;;;1.10;1.00;;;20.30;21.80;;;;;;5073202;28;20387;-54
2021/01/21 01:08:01;;;;;;;1.60;1.33;;;20.30;21.80;;;;;;5073003;28;20222;-54
2021/01/21 01:10:27;;;;;;;1.77;1.17;;;20.30;21.80;;;;;;5073749;28;20415;-54
2021/01/21 01:12:53;;;;;;;1.33;1.10;;;20.30;21.80;;;;;;5073444;28;20249;-54
2021/01/21 01:15:25;;;;;;;1.00;0.80;;;20.30;21.80;;;;;;5073546;28;20499;-54
2021/01/21 01:17:51;;;;;;;1.20;1.10;;;20.30;21.80;;;;;;5073340;28;20150;-55
2021/01/21 01:20:16;;;;;;;1.17;1.07;;;20.30;21.80;;;;;;5073596;28;20158;-54
2021/01/21 01:22:51;;;;;;;1.27;1.17;;;20.30;21.80;;;;;;5073012;28;20190;-55
2021/01/21 01:25:18;;;;;;;1.25;1.15;;;20.30;21.80;;;;;;5073363;28;20186;-54
2021/01/21 01:27:43;;;;;;;1.40;1.30;;;20.30;21.80;;;;;;5073200;28;20151;-54
2021/01/21 01:30:11;;;;;;;1.10;1.00;;;20.30;21.80;;;;;;5073342;28;20598;-54
2021/01/21 01:32:37;;;;;;;1.33;1.23;;;20.30;21.80;;;;;;5073246;28;20155;-54
2021/01/21 01:35:03;;;;;;;1.20;1.10;;;20.30;21.90;;;;;;5073334;28;20162;-54
2021/01/21 01:37:29;;;;;;;1.10;1.00;;;20.30;21.80;;;;;;5072708;28;20170;-53
2021/01/21 01:39:54;;;;;;;1.40;1.20;;;20.30;21.80;;;;;;5073350;28;20159;-54
2021/01/21 01:42:20;;;;;;;1.13;1.03;;;20.30;21.80;;;;;;5073045;28;20662;-55
2021/01/21 01:44:45;;;;;;;1.10;0.90;;;20.30;21.80;;;;;;5073301;28;20170;-55
2021/01/21 01:47:11;;;;;;;1.17;1.07;;;20.30;21.80;;;;;;5072982;28;20185;-57
2021/01/21 01:49:37;;;;;;;1.93;1.10;;;20.30;21.80;;;;;;5073298;28;20155;-56
2021/01/21 01:52:03;;;;;;;3.97;1.10;;;20.30;21.80;;;;;;5072951;28;20159;-54
2021/01/21 01:54:29;;;;;;;1.07;1.00;;;20.30;21.80;;;;;;5072584;28;20405;-56
2021/01/21 01:56:58;;;;;;;1.25;1.02;;;20.30;21.80;;;;;;5073043;28;20408;-54
2021/01/21 01:59:24;;;;;;;1.23;1.13;;;20.30;21.80;;;;;;5073121;28;20155;-56
2021/01/21 02:01:54;;;;;;;1.23;0.90;;;20.30;21.80;;;;;;5058119;28;20202;-55
2021/01/21 02:04:20;;;;;;;0.95;0.82;;;20.30;21.80;;;;;;5052939;28;20163;-55
2021/01/21 02:06:45;;;;;;;1.00;0.90;;;20.30;21.80;;;;;;5052909;28;20163;-54
2021/01/21 02:09:11;;;;;;;1.20;1.10;;;20.30;21.80;;;;;;5052373;28;20219;-55
2021/01/21 02:12:00;;;;;;;1.47;1.13;;;20.30;21.80;;;;;;5052978;28;20195;-53
2021/01/21 02:14:53;;;;;;;1.42;1.00;;;20.30;21.80;;;;;;5052691;28;20155;-54
2021/01/21 02:17:49;;;;;;;2.45;1.20;;;20.30;21.80;;;;;;5055245;28;20155;-54
2021/01/21 02:20:39;;;;;;;1.13;1.00;;;20.30;21.80;;;;;;5055224;28;20633;-54
2021/01/21 02:23:42;;;;;;;1.30;1.20;;;20.30;21.80;;;;;;5055989;28;20187;-54
2021/01/21 02:26:10;;;;;;;1.30;1.20;;;20.30;21.80;;;;;;5056412;28;20281;-54
2021/01/21 02:29:06;;;;;;;1.10;0.90;;;20.30;21.80;;;;;;5056312;28;20174;-54
2021/01/21 02:32:00;;;;;;;1.27;1.05;;;20.30;21.80;;;;;;5056373;28;20224;-54
2021/01/21 02:34:33;;;;;;;1.30;1.15;;;20.30;21.80;;;;;;5056059;28;20189;-54
2021/01/21 02:37:00;;;;;;;1.10;1.00;;;20.30;21.80;;;;;;5055953;28;20234;-54
2021/01/21 02:39:28;;;;;;;1.67;1.58;;;20.30;21.80;;;;;;5055524;28;20689;-54
2021/01/21 02:41:54;;;;;;;1.70;1.40;;;20.30;21.80;;;;;;5055874;28;20209;-55
2021/01/21 02:44:20;;;;;;;1.10;1.00;;;20.30;21.80;;;;;;5056240;28;20159;-55
2021/01/21 02:46:47;;;;;;;1.07;0.97;;;20.30;22.30;;;;;;5056145;28;20201;-54
2021/01/21 02:49:14;;;;;;;1.10;1.00;;;20.30;22.30;;;;;;5055952;28;20644;-54
2021/01/21 02:51:51;;;;;;;1.45;1.15;;;20.30;21.80;;;;;;5056072;28;20678;-54
2021/01/21 02:54:33;;;;;;;1.23;1.13;;;20.30;21.80;;;;;;5055580;28;20163;-55
2021/01/21 02:57:13;;;;;;;0.77;0.77;;;20.30;21.80;;;;;;5055826;28;20163;-53
2021/01/21 02:59:41;;;;;;;2.20;1.45;;;20.30;21.80;;;;;;5055942;28;20159;-54
2021/01/21 03:02:08;;;;;;;1.58;0.90;;;20.30;21.80;;;;;;5055485;28;20557;-54
2021/01/21 03:04:40;;;;;;;1.10;0.90;;;20.30;21.80;;;;;;5055673;28;20625;-54
2021/01/21 03:07:11;;;;;;;1.00;0.90;;;20.30;21.80;;;;;;5055491;28;20253;-54
2021/01/21 03:09:43;;;;;;;1.05;0.80;;;20.30;21.80;;;;;;5055671;28;20230;-54
2021/01/21 03:12:16;;;;;;;1.23;1.13;;;20.30;21.80;;;;;;5055548;28;20179;-54
2021/01/21 03:14:42;;;;;;;1.25;1.13;;;20.30;21.80;;;;;;5055864;28;20175;-53
2021/01/21 03:17:08;;;;;;;1.50;1.40;;;20.30;21.80;;;;;;5055641;28;20178;-54
2021/01/21 03:19:33;;;;;;;1.10;1.00;;;20.30;21.80;;;;;;5055482;28;20174;-54
2021/01/21 03:21:59;;;;;;;0.90;0.90;;;20.30;21.80;;;;;;5037549;28;20195;-54
2021/01/21 03:24:24;;;;;;;1.50;1.40;;;20.30;21.80;;;;;;5054950;28;20170;-54
2021/01/21 03:26:53;;;;;;;1.23;1.00;;;20.30;21.80;;;;;;5054900;28;20198;-54
2021/01/21 03:29:19;;;;;;;1.10;1.00;;;20.30;21.80;;;;;;5055274;28;20163;-54
2021/01/21 03:31:44;;;;;;;1.10;1.00;;;20.30;21.80;;;;;;5055397;28;20174;-54
2021/01/21 03:34:10;;;;;;;0.87;0.77;;;20.30;21.80;;;;;;5054770;28;20155;-54
2021/01/21 03:36:36;;;;;;;1.10;1.00;;;20.30;21.80;;;;;;5055207;28;20244;-54
2021/01/21 03:39:02;;;;;;;1.10;1.00;;;20.30;21.80;;;;;;5054503;28;20250;-54
2021/01/21 03:41:27;;;;;;;0.77;0.77;;;20.30;21.80;;;;;;5054976;28;20195;-53
2021/01/21 03:43:53;;;;;;;0.97;0.87;;;20.30;21.80;;;;;;5054751;28;20398;-53
2021/01/21 03:46:18;;;;;;;1.93;0.90;;;20.30;21.80;;;;;;5054792;28;20631;-54
2021/01/21 03:48:44;;;;;;;1.23;1.10;;;20.30;21.80;;;;;;5054566;28;20201;-55
2021/01/21 03:51:10;;;;;;;1.13;1.03;;;20.30;21.80;;;;;;5054730;28;20191;-54
2021/01/21 03:53:35;;;;;;;1.10;1.00;;;20.30;21.80;;;;;;5054159;28;20653;-53
2021/01/21 03:56:01;;;;;;;0.87;0.87;;;20.30;21.80;;;;;;5054384;28;20201;-55
2021/01/21 03:58:26;;;;;;;1.00;0.90;;;20.30;21.80;;;;;;5054501;28;20265;-55
2021/01/21 04:00:52;;;;;;;1.00;0.90;;;20.30;21.80;;;;;;5054249;28;20613;-54
2021/01/21 04:03:18;;;;;;;1.10;1.00;;;20.30;21.80;;;;;;5054492;28;20167;-53
2021/01/21 04:05:43;;;;;;;1.17;1.07;;;20.30;21.80;;;;;;5054585;28;20598;-54
2021/01/21 04:08:09;;;;;;;1.70;1.60;;;20.30;21.80;;;;;;5053855;28;20253;-54
2021/01/21 04:10:34;;;;;;;0.70;0.70;;;20.30;21.80;;;;;;5054639;28;20206;-53
2021/01/21 04:13:00;;;;;;;1.00;0.90;;;20.30;21.80;;;;;;5054369;28;20599;-55
2021/01/21 04:15:26;;;;;;;1.00;0.90;;;20.30;21.80;;;;;;5054410;28;20159;-53
2021/01/21 04:17:51;;;;;;;1.20;0.70;;;20.30;21.80;;;;;;5054129;28;20625;-54
2021/01/21 04:20:17;;;;;;;0.80;0.80;;;20.30;22.30;;;;;;5054164;28;20668;-54
2021/01/21 04:22:42;;;;;;;1.00;0.87;;;20.30;21.80;;;;;;5053696;28;20198;-54
2021/01/21 04:25:09;;;;;;;0.73;0.73;;;20.30;21.70;;;;;;5054110;28;20179;-55
2021/01/21 04:27:35;;;;;;;0.90;0.90;;;20.30;21.80;;;;;;5054224;28;20159;-54
2021/01/21 04:30:00;;;;;;;0.80;0.80;;;20.30;21.70;;;;;;5054193;28;20155;-54
2021/01/21 04:32:26;;;;;;;0.87;0.83;;;20.30;21.80;;;;;;5053881;28;20610;-54
2021/01/21 04:34:51;;;;;;;1.03;0.93;;;20.30;21.80;;;;;;5054163;28;20610;-54
2021/01/21 04:37:17;;;;;;;1.20;1.10;;;20.30;21.80;;;;;;5053458;28;20191;-54
2021/01/21 04:39:42;;;;;;;1.10;0.93;;;20.30;21.80;;;;;;5053625;28;20645;-54
2021/01/21 04:42:08;;;;;;;1.27;1.17;;;20.30;21.80;;;;;;5053627;28;20693;-54
2021/01/21 04:44:34;;;;;;;1.30;1.20;;;20.30;21.30;;;;;;5053928;28;20163;-54
2021/01/21 04:47:00;;;;;;;0.90;0.90;;;20.30;21.80;;;;;;5053799;28;20155;-55
2021/01/21 04:49:29;;;;;;;1.00;0.88;;;20.30;21.80;;;;;;5053851;28;20602;-54
2021/01/21 04:52:03;;;;;;;1.05;0.88;;;20.40;21.80;;;;;;5053639;28;20606;-54
2021/01/21 04:54:35;;;;;;;1.17;1.08;;;20.40;21.80;;;;;;5053132;28;20159;-54
2021/01/21 04:57:03;;;;;;;1.17;1.05;;;20.40;21.80;;;;;;5053513;28;20151;-54
2021/01/21 04:59:37;;;;;;;1.50;1.40;;;20.40;21.80;;;;;;5053895;28;20167;-54
2021/01/21 05:02:07;;;;;;;1.05;0.95;;;20.40;21.80;;;;;;5053192;28;20206;-54
2021/01/21 05:04:33;;;;;;;1.30;0.95;;;20.40;21.80;;;;;;5053881;28;20163;-54
2021/01/21 05:07:00;;;;;;;1.10;1.00;;;20.40;21.80;;;;;;5053533;28;20190;-55
2021/01/21 05:09:26;;;;;;;1.25;0.95;;;20.40;21.80;;;;;;5052792;28;20214;-55
2021/01/21 05:11:55;;;;;;;1.20;1.10;;;20.40;21.80;;;;;;5053431;28;20634;-54
2021/01/21 05:14:21;;;;;;;1.10;1.00;;;20.40;21.80;;;;;;5053276;28;20166;-54
2021/01/21 05:16:47;;;;;;;0.70;0.60;;;20.40;21.80;;;;;;5053577;28;20170;-55
2021/01/21 05:19:18;;;;;;;1.10;1.00;;;20.40;21.80;;;;;;5053162;28;20155;-53
2021/01/21 05:21:44;;;;;;;1.40;0.77;;;20.40;21.80;;;;;;5053287;28;20653;-54
2021/01/21 05:24:13;;;;;;;1.00;0.90;;;20.40;21.80;;;;;;5052757;28;20155;-55
2021/01/21 05:26:39;;;;;;;1.10;1.00;;;20.40;21.80;;;;;;5053459;28;20159;-54
2021/01/21 05:29:06;;;;;;;1.00;0.80;;;20.40;22.30;;;;;;5052940;28;20159;-54
2021/01/21 05:31:35;;;;;;;1.58;1.00;;;20.40;21.70;;;;;;5053305;28;20160;-55
2021/01/21 05:34:04;;;;;;;1.23;1.10;;;20.40;21.70;;;;;;5053119;28;20186;-54
2021/01/21 05:36:35;;;;;;;0.80;0.80;;;20.40;21.70;;;;;;5053112;28;20159;-54
2021/01/21 05:39:05;;;;;;;1.00;0.90;;;20.40;21.70;;;;;;5052617;28;20182;-54
2021/01/21 05:41:33;;;;;;;0.95;0.90;;;20.40;21.70;;;;;;5053281;28;20190;-54
2021/01/21 05:44:01;;;;;;;1.25;1.15;;;20.40;21.70;;;;;;5052812;28;20147;-54
2021/01/21 05:46:27;;;;;;;0.95;0.82;;;20.50;21.80;;;;;;5052980;28;20188;-54
2021/01/21 05:48:54;;;;;;;0.87;0.87;;;20.40;21.70;;;;;;5053000;28;20174;-54
2021/01/21 05:51:23;;;;;;;0.93;0.80;;;20.50;22.30;;;;;;5055472;28;20159;-54
2021/01/21 05:53:51;;;;;;;1.02;0.80;;;20.50;21.80;;;;;;5056781;28;20163;-54
2021/01/21 05:56:19;;;;;;;1.00;0.90;;;20.50;21.70;;;;;;5056986;28;20186;-55
2021/01/21 05:58:45;;;;;;;2.58;0.98;;;20.50;21.70;;;;;;5056665;28;20187;-55
2021/01/21 06:01:12;;;;;;;0.77;0.77;;;20.50;21.70;;;;;;5056631;28;20201;-54
2021/01/21 06:03:38;;;;;;;0.77;0.77;;;20.50;21.70;;;;;;5056916;28;20206;-54
2021/01/21 06:06:07;;;;;;;1.87;1.07;;;20.50;21.70;;;;;;5056570;28;20615;-55
2021/01/21 06:08:40;;;;;;;0.93;0.90;;;20.50;21.70;;;;;;5056218;28;20515;-54
2021/01/21 06:11:10;;;;;;;1.05;0.98;;;20.50;21.70;;;;;;5038995;28;20155;-54
2021/01/21 06:13:41;;;;;;;1.17;0.88;;;20.50;21.70;;;;;;5056353;28;20712;-54
2021/01/21 06:16:08;;;;;;;1.13;1.02;;;20.50;21.70;;;;;;5056515;28;20172;-54
2021/01/21 06:18:34;;;;;;;1.25;1.15;;;20.50;21.70;;;;;;5056466;28;20160;-55
2021/01/21 06:21:04;;;;;;;0.90;0.90;;;20.50;21.70;;;;;;5056350;28;20191;-55
2021/01/21 06:23:31;;;;;;;1.05;0.95;;;20.50;21.70;;;;;;5055660;28;20242;-54
2021/01/21 06:25:58;;;;;;;1.15;0.93;;;20.50;21.70;;;;;;5056346;28;20151;-55
2021/01/21 06:28:26;;;;;;;0.90;0.80;;;20.50;21.60;;;;;;5056210;28;20209;-55
2021/01/21 06:30:59;;;;;;;1.75;1.08;;;20.50;21.60;;;;;;5056241;28;20234;-54
2021/01/21 06:33:35;;;;;;;1.48;1.00;;;20.50;21.60;;;;;;5056066;28;20163;-55
2021/01/21 06:36:06;;;;;;;1.17;1.08;;;20.50;21.60;;;;;;5055900;28;20146;-55
2021/01/21 06:38:41;;;;;;;0.90;0.80;;;20.50;21.60;;;;;;5055586;28;20163;-54
2021/01/21 06:41:27;;;;;;;1.10;1.00;;;20.50;21.60;;;;;;5055674;28;20426;-54
2021/01/21 06:43:54;;;;;;;1.00;0.90;;;20.60;21.70;;;;;;5055856;28;20155;-54
2021/01/21 06:46:21;;;;;;;2.10;0.93;;;20.60;21.70;;;;;;5055975;28;20162;-54
2021/01/21 06:48:48;;;;;;;0.90;0.90;;;20.60;21.60;;;;;;5055827;28;20221;-54
2021/01/21 06:51:15;;;;;;;1.13;1.02;;;20.60;21.60;;;;;;5056050;28;20167;-55
2021/01/21 06:53:43;;;;;;;1.02;0.90;;;20.60;21.60;;;;;;5055073;28;20190;-55
2021/01/21 06:56:09;;;;;;;1.17;1.05;;;20.60;21.60;;;;;;5055632;28;20200;-54
2021/01/21 06:58:48;;;;;;;1.40;0.98;;;20.60;21.60;;;;;;5055649;28;20160;-54
2021/01/21 07:01:40;;;;;;;1.40;1.10;;;20.60;21.70;;;;;;5055441;28;20190;-54
2021/01/21 07:04:08;;;;;;;1.20;1.10;;;20.60;21.60;;;;;;5052125;28;20187;-55
2021/01/21 07:07:00;;;;;;;1.10;1.00;;;20.60;22.20;;;;;;5055539;28;20155;-54
2021/01/21 07:09:26;;;;;;;1.15;1.05;;;20.60;21.60;;;;;;5054657;28;20301;-54
2021/01/21 07:12:01;;;;;;;1.10;0.90;;;20.60;21.60;;;;;;5055168;28;20246;-54
2021/01/21 07:14:31;;;;;;;2.08;1.20;;;20.60;21.60;;;;;;5055136;28;20185;-54
2021/01/21 07:17:02;;;;;;;0.90;0.82;;;20.60;21.60;;;;;;5055031;28;20164;-54
2021/01/21 07:19:49;;;;;;;1.10;0.98;;;20.60;21.60;;;;;;5055183;28;20163;-55
2021/01/21 07:22:24;;;;;;;0.90;0.80;;;20.60;21.60;;;;;;5054352;28;20182;-55
2021/01/21 07:24:58;;;;;;;1.10;1.00;;;20.60;21.60;;;;;;5054966;28;20161;-56
2021/01/21 07:27:27;;;;;;;0.70;0.70;;;21.70;22.30;;;;;;5055004;28;20475;-54
2021/01/21 07:30:16;;;;;;;1.10;0.98;;;20.70;21.60;;;;;;5054963;28;20148;-54
2021/01/21 07:32:43;;;;;;;1.17;1.02;;;20.70;21.50;;;;;;5054962;28;20159;-54
2021/01/21 07:35:31;;;;;;;1.17;1.00;;;20.70;21.50;;;;;;5053982;28;20164;-56
2021/01/21 07:37:57;;;;;;;1.20;1.10;;;20.70;21.50;;;;;;5053854;28;20151;-55
2021/01/21 07:40:41;;;;;;;1.40;0.90;;;20.70;21.50;;;;;;5054394;28;20514;-54
2021/01/21 07:43:07;;;;;;;0.80;0.80;;;20.70;21.50;;;;;;5036187;28;20766;-54
2021/01/21 07:45:32;;;;;;;1.00;0.83;;;20.70;21.50;;;;;;5054368;28;20171;-54
2021/01/21 07:48:25;;;;;;;1.47;0.90;;;23.10;23.10;;;;;;5052731;28;20273;-54
2021/01/21 07:50:52;;;;;;;0.80;0.70;;;20.70;21.40;;;;;;5053912;28;20154;-54
2021/01/21 07:53:28;;;;;;;0.90;0.68;;;20.70;21.40;;;;;;5053462;28;20163;-55
2021/01/21 07:56:02;;;;;;;0.80;0.80;;;20.80;21.50;;;;;;5053002;28;20186;-54
2021/01/21 07:58:37;;;;;;;1.20;1.00;;;20.80;21.40;;;;;;5039936;28;20202;-55
2021/01/21 08:01:07;;;;;;;1.80;1.27;;;20.80;21.30;;;;;;5053140;28;20714;-54
2021/01/21 08:03:43;;;;;;;1.30;0.90;;;20.80;21.30;;;;;;5051830;28;20159;-55
2021/01/21 08:06:21;;;;;;;1.17;0.60;;;20.80;21.30;;;;;;5053581;28;20220;-54
2021/01/21 08:08:50;;;;;;;0.88;0.75;;;20.80;21.30;;;;;;5052580;28;20237;-55
2021/01/21 08:11:17;;;;;;;0.90;0.80;;;20.80;21.30;;;;;;5052216;28;20174;-54
2021/01/21 08:13:43;;;;;;;1.15;0.90;;;20.90;21.30;;;;;;5048062;28;20209;-54
2021/01/21 08:16:16;;;;;;;0.98;0.98;;;20.80;21.20;;;;;;5053386;28;20202;-54
2021/01/21 08:18:42;;;;;;;0.95;0.85;;;20.90;21.30;;;;;;5051560;28;20183;-55
2021/01/21 08:21:38;;;;;;;1.20;0.98;;;20.90;21.20;;;;;;5053132;28;20241;-55
2021/01/21 08:24:08;;;;;;;0.98;0.70;;;20.90;21.20;;;;;;5036079;28;20704;-55
2021/01/21 08:26:35;;;;;;;1.40;1.08;;;20.90;21.10;;;;;;5053249;28;20171;-54
2021/01/21 08:29:01;;;;;;;1.15;0.85;;;20.90;21.00;;;;;;5052960;28;20618;-54
2021/01/21 08:31:46;;;;;;;0.80;0.73;;;20.90;20.90;;;;;;5053518;28;20166;-54
2021/01/21 08:34:20;;;;;;;1.30;1.17;;;21.00;20.90;;;;;;5044613;28;20159;-54
2021/01/21 08:36:46;;;;;;;0.90;0.90;;;21.00;20.90;;;;;;5052294;28;20635;-58
2021/01/21 08:39:12;;;;;;;0.90;0.90;;;21.00;20.90;;;;;;5052506;28;20186;-56
2021/01/21 08:41:40;;;;;;;1.00;0.80;;;21.00;21.40;;;;;;5052695;28;20198;-56
2021/01/21 08:44:07;;;;;;;1.10;1.00;;;21.00;20.90;;;;;;5052569;28;20201;-55
2021/01/21 08:46:32;;;;;;;0.88;0.88;;;21.00;20.90;;;;;;5052345;28;20163;-54
2021/01/21 08:49:09;;;;;;;1.57;1.10;;;21.00;20.90;;;;;;5052568;28;20534;-55
2021/01/21 08:51:39;;;;;;;1.17;1.00;;;21.00;20.90;;;;;;5052825;28;20205;-54
2021/01/21 08:54:18;;;;;;;1.98;0.88;;;21.00;20.90;;;;;;5052630;28;20159;-54
2021/01/21 08:57:04;;;;;;;1.08;1.02;;;21.00;20.90;;;;;;5052916;28;20182;-57
2021/01/21 08:59:30;;;;;;;1.10;1.00;;;21.00;21.00;;;;;;5053043;28;20166;-55
2021/01/21 09:01:57;;;;;;;0.98;0.88;;;21.00;20.90;;;;;;5052450;28;20236;-54
2021/01/21 09:04:28;;;;;;;1.10;1.00;;;21.00;20.90;;;;;;5052485;28;20510;-53
2021/01/21 09:06:55;;;;;;;1.08;0.85;;;21.00;20.90;;;;;;5052252;28;20170;-54
2021/01/21 09:09:30;;;;;;;1.40;1.30;;;21.10;21.00;;;;;;5052236;28;20253;-55
2021/01/21 09:11:57;;;;;;;1.00;0.90;;;21.00;20.90;;;;;;5052724;28;20173;-55
2021/01/21 09:14:26;;;;;;;1.00;1.00;;;21.10;21.00;;;;;;5052510;28;20160;-53
2021/01/21 09:16:53;;;;;;;2.90;0.95;;;21.10;21.00;;;;;;5052255;28;20171;-54
2021/01/21 09:19:25;;;;;;;1.05;0.95;;;21.10;21.00;;;;;;5041873;28;20194;-54
2021/01/21 09:22:07;;;;;;;1.00;0.80;;;21.10;21.00;;;;;;5052081;28;20186;-54
2021/01/21 09:24:34;;;;;;;0.80;0.80;;;21.10;21.00;;;;;;5052381;28;20510;-54
2021/01/21 09:27:14;;;;;;;1.38;1.27;;;21.10;21.00;;;;;;5059041;28;20273;-54
2021/01/21 09:29:57;;;;;;;1.05;0.93;;;21.20;21.10;;;;;;5058925;28;20201;-54
2021/01/21 09:32:29;;;;;;;1.75;1.00;;;21.20;21.00;;;;;;5059104;28;20618;-54
2021/01/21 09:35:01;;;;;;;1.10;1.00;;;21.30;21.10;;;;;;5058769;28;20163;-55
2021/01/21 09:37:30;;;;;;;1.00;0.90;;;21.20;21.10;;;;;;5057478;28;20175;-55
2021/01/21 09:39:56;;;;;;;1.33;1.10;;;21.30;21.10;;;;;;5058642;28;20545;-55
2021/01/21 09:42:22;;;;;;;1.85;0.90;;;21.30;21.10;;;;;;5058668;28;20699;-53
2021/01/21 09:44:48;;;;;;;1.45;0.90;;;21.30;21.10;;;;;;5059143;28;20167;-53
2021/01/21 09:47:14;;;;;;;0.93;0.80;;;21.30;21.10;;;;;;5059384;28;20195;-54
2021/01/21 09:49:41;;;;;;;1.52;0.98;;;21.30;21.10;;;;;;5055484;28;20483;-57
2021/01/21 09:52:07;;;;;;;1.83;1.08;;;21.30;21.10;;;;;;5058369;28;20248;-55
2021/01/21 09:54:33;;;;;;;1.20;1.10;;;21.30;21.10;;;;;;5058866;28;20210;-54
2021/01/21 09:56:59;;;;;;;1.53;1.40;;;21.30;21.10;;;;;;5059109;28;20491;-54
2021/01/21 09:59:25;;;;;;;1.30;1.20;;;21.30;21.10;;;;;;5051706;28;20183;-54
2021/01/21 10:01:51;;;;;;;0.93;0.90;;;21.30;21.10;;;;;;5058008;28;20264;-54
2021/01/21 10:04:16;;;;;;;1.20;1.10;;;21.30;21.10;;;;;;5058618;28;20155;-54
2021/01/21 10:06:42;;;;;;;0.80;0.80;;;21.30;21.10;;;;;;5057731;28;20376;-54
2021/01/21 10:09:08;;;;;;;1.90;1.00;;;21.20;21.10;;;;;;5050037;28;20465;-54
2021/01/21 10:11:34;;;;;;;1.20;1.10;;;21.30;21.10;;;;;;5059051;28;20159;-53
2021/01/21 10:14:01;;;;;;;1.30;1.10;;;21.30;21.10;;;;;;5037953;28;20637;-55
2021/01/21 10:16:28;;;;;;;1.30;1.20;;;21.30;21.10;;;;;;5038504;28;20369;-54
2021/01/21 10:18:54;;;;;;;1.02;0.90;;;21.30;21.10;;;;;;5045373;28;20179;-55
2021/01/21 10:21:19;;;;;;;1.10;1.00;;;21.30;21.00;;;;;;5056351;28;20230;-55
2021/01/21 10:23:45;;;;;;;1.10;1.00;;;21.30;21.00;;;;;;5058222;28;20296;-55
2021/01/21 10:26:11;;;;;;;1.33;1.00;;;21.30;21.50;;;;;;5058739;28;20179;-55
2021/01/21 10:28:36;;;;;;;1.93;1.23;;;21.30;20.90;;;;;;5058175;28;20182;-55
2021/01/21 10:31:02;;;;;;;0.83;0.83;;;21.30;20.90;;;;;;5045892;28;20232;-55
2021/01/21 10:33:28;;;;;;;1.13;1.03;;;21.30;20.90;;;;;;5052034;28;20206;-54
2021/01/21 10:35:54;;;;;;;0.75;0.75;;;21.40;20.80;;;;;;5058239;28;20155;-55
2021/01/21 10:38:20;;;;;;;1.17;0.80;;;21.40;20.70;;;;;;5053257;28;20301;-55
2021/01/21 10:40:45;;;;;;;1.23;0.80;;;21.50;20.70;;;;;;5055070;28;20214;-55
2021/01/21 10:43:11;;;;;;;0.67;0.60;;;21.50;20.60;;;;;;5055409;28;20162;-56
2021/01/21 10:45:37;;;;;;;1.40;1.10;;;21.60;20.50;;;;;;5038123;28;20182;-55
2021/01/21 10:48:03;;;;;;;1.17;1.03;;;21.60;20.40;;;;;;5054722;28;20171;-55
2021/01/21 10:50:28;;;;;;;1.10;1.00;;;21.60;20.40;;;;;;5055265;28;20178;-55
2021/01/21 10:52:54;;;;;;;0.80;0.80;;;21.60;20.40;;;;;;5054302;28;20623;-54
2021/01/21 10:55:20;;;;;;;0.87;0.80;;;21.60;20.30;;;;;;5055163;28;20167;-55
2021/01/21 10:57:45;;;;;;;1.13;1.03;;;21.70;20.30;;;;;;5054414;28;20182;-55
2021/01/21 11:00:12;;;;;;;1.20;1.10;;;21.70;20.30;;;;;;5054466;28;20720;-54
2021/01/21 11:02:38;;;;;;;1.13;1.02;;;21.70;20.20;;;;;;5037137;28;20195;-55
2021/01/21 11:05:04;;;;;;;1.20;1.10;;;21.70;20.20;;;;;;5054915;28;20159;-55
2021/01/21 11:07:31;;;;;;;1.10;0.88;;;21.80;20.20;;;;;;5046446;28;20179;-55
2021/01/21 11:09:57;;;;;;;1.15;1.05;;;21.80;20.10;;;;;;5054511;28;20187;-55
2021/01/21 11:12:23;;;;;;;1.17;1.07;;;21.80;20.10;;;;;;5054315;28;20174;-54
2021/01/21 11:14:49;;;;;;;1.47;1.10;;;21.90;20.10;;;;;;5037018;28;20262;-54
2021/01/21 11:17:14;;;;;;;2.40;2.13;;;21.80;20.00;;;;;;5053978;28;20171;-56
2021/01/21 11:19:40;;;;;;;1.80;1.40;;;21.90;20.00;;;;;;5053140;28;20178;-54
2021/01/21 11:22:06;;;;;;;1.30;1.00;;;21.90;20.00;;;;;;5054339;28;20653;-54
2021/01/21 11:24:31;;;;;;;1.37;1.10;;;21.30;19.50;;;;;;5053082;28;20201;-56
2021/01/21 11:26:57;;;;;;;1.57;1.30;;;22.00;20.00;;;;;;5053580;28;20169;-55
2021/01/21 11:29:24;;;;;;;1.73;1.33;;;22.00;19.90;;;;;;5053453;28;20167;-56
2021/01/21 11:31:52;;;;;;;1.45;1.35;;;21.90;19.80;;;;;;5054101;28;20171;-55
2021/01/21 11:34:18;;;;;;;1.77;1.55;;;22.00;19.90;;;;;;5054152;28;20170;-55
2021/01/21 11:36:44;;;;;;;1.67;1.40;;;22.00;19.80;;;;;;5053713;28;20171;-55
2021/01/21 11:39:10;;;;;;;1.40;1.30;;;22.00;19.80;;;;;;5053958;28;20413;-54
2021/01/21 11:41:36;;;;;;;1.83;1.65;;;22.00;19.80;;;;;;5054393;28;20321;-54
2021/01/21 11:44:02;;;;;;;1.90;1.20;;;22.00;19.80;;;;;;5054101;28;20246;-54
2021/01/21 11:46:27;;;;;;;1.37;1.27;;;22.00;19.70;;;;;;5054486;28;20425;-55
2021/01/21 11:48:53;;;;;;;2.33;1.90;;;22.10;19.80;;;;;;5054095;28;20397;-55
2021/01/21 11:51:19;;;;;;;3.00;1.87;;;22.10;19.70;;;;;;5053360;28;20209;-56
2021/01/21 11:53:45;;;;;;;2.85;1.90;;;22.10;19.70;;;;;;5052773;28;20213;-55
2021/01/21 11:56:11;;;;;;;2.03;1.83;;;22.20;20.20;;;;;;5053830;28;20178;-55
2021/01/21 11:58:37;;;;;;;2.33;1.67;;;22.20;19.60;;;;;;5052820;28;20162;-56
2021/01/21 12:01:03;;;;;;;1.50;1.40;;;22.20;19.60;;;;;;5052947;28;20206;-55
2021/01/21 12:03:29;;;;;;;2.20;1.80;;;22.20;19.50;;;;;;5054151;28;20155;-56
2021/01/21 12:05:55;;;;;;;2.50;1.73;;;22.20;19.50;;;;;;5053218;28;20400;-56
2021/01/21 12:08:23;;;;;;;3.43;1.90;;;22.30;19.50;;;;;;5052338;28;20231;-55
2021/01/21 12:10:49;;;;;;;1.60;1.50;;;22.30;19.50;;;;;;5052370;28;20190;-55
2021/01/21 12:13:17;;;;;;;1.83;1.73;;;22.30;19.50;;;;;;5053626;28;20155;-56
2021/01/21 12:15:43;;;;;;;2.80;1.60;;;22.30;19.50;;;;;;5053567;28;20159;-56
2021/01/21 12:18:08;;;;;;;1.93;1.73;;;22.30;19.40;;;;;;5053222;28;20167;-55
2021/01/21 12:20:34;;;;;;;2.73;2.30;;;22.30;19.40;;;;;;5053090;28;20425;-56
2021/01/21 12:23:00;;;;;;;2.80;2.37;;;22.30;19.40;;;;;;5053204;28;20496;-55
2021/01/21 12:25:25;;;;;;;2.80;1.83;;;22.30;19.40;;;;;;5053611;28;20186;-55
2021/01/21 12:27:51;;;;;;;1.87;1.77;;;22.30;19.30;;;;;;5052985;28;20171;-56
2021/01/21 12:30:17;;;;;;;1.90;1.80;;;22.30;19.40;;;;;;5053495;28;20163;-56
2021/01/21 12:32:43;;;;;;;2.37;2.17;;;22.40;19.40;;;;;;5053158;28;20183;-55
2021/01/21 12:35:09;;;;;;;2.07;1.70;;;22.40;19.40;;;;;;5052741;28;20438;-55
2021/01/21 12:37:36;;;;;;;2.10;1.77;;;22.40;19.30;;;;;;5048043;28;20167;-55
2021/01/21 12:40:03;;;;;;;1.95;1.75;;;22.40;19.30;;;;;;5053165;28;20159;-55
2021/01/21 12:42:28;;;;;;;2.35;2.00;;;22.40;19.20;;;;;;5052732;28;20265;-55
2021/01/21 12:44:54;;;;;;;1.77;1.67;;;22.50;19.30;;;;;;5052792;28;20251;-56
2021/01/21 12:47:20;;;;;;;2.10;1.90;;;22.50;19.30;;;;;;5044738;28;20246;-56
2021/01/21 12:49:45;;;;;;;2.70;1.80;;;22.50;19.30;;;;;;5052847;28;20183;-55
2021/01/21 12:52:12;;;;;;;2.83;1.70;;;22.50;19.30;;;;;;5051880;28;20539;-55
2021/01/21 12:54:38;;;;;;;3.28;2.25;;;22.40;19.20;;;;;;5052721;28;20254;-55
2021/01/21 12:57:05;;;;;;;2.20;2.00;;;22.50;19.30;;;;;;5052874;28;20202;-56